Villalba, PR (00766)

12:13 PM AST on March 27, 2015 (GMT -0400)
Manejo de Emergencias Villalba | | Change Station
CLOSE
Current Station
Personal Weather Station
Location: Villalba, PR
Elevation: 45 ft
Nearby Weather Stations

Elev 45 ft 18.11 °N, 66.51 °W | Updated 9 minutes ago

Partly Cloudy
Partly Cloudy
84.1 °F
Feels Like 87 °F
N
8.0
Wind Variable Wind from SE
Gusts 21.0 mph

Today
High -- | Low -- °F
--% Chance of Precip.
Yesterday
High -- | Low -- °F
Precip. -- in
6:24 AM 6:38 PM
First Quarter, 53% visible
Pressure 30.05 in
Visibility 10.0 miles
Clouds Few 3000 ft
Heat Index 87 °F
Dew Point 67 °F
Humidity 57%
Rainfall -999.00 in
Snow Depth Not available.
UV 11 out of 12
Pollen Not available.
Air Quality Not available.
Flu Activity Not available.
METAR TJPS 271550Z 12010G15KT 10SM FEW030 31/22 A3005

More Conditions Fewer Conditions

Pressure 30.05 in
Visibility 10.0 miles
Clouds Few 3000 ft
Heat Index 87 °F
Dew Point 67 °F
Humidity 57%
Rainfall -999.00 in
Snow Depth Not available.
UV 11 out of 12
Pollen Not available.
Air Quality Not available.
Flu Activity Not available.
METAR TJPS 271550Z 12010G15KT 10SM FEW030 31/22 A3005

More Conditions Fewer Conditions

10-Day Weather Forecast

Almanac

Astronomy

Mar. 27, 2015 Rise Set
Actual Time
Civil Twilight
Nautical Twilight
Astronomical Twilight
Moon
Length of Visible Light
Length of Day
Tomorrow will be .
, % of the Moon is Illuminated

Today's Extremes

State Highs State Lows

Community

WunderPhotos

Upload Photos

1,808,766 photos uploaded!

WunderBlogs® & News

Nearby

Air Quality

  Air Quality AQ Index Pollutant
Not available.

Snow Depth

Station Depth Elevation

Earthquake Activity

City Distance Mag. Time & Date
Minimum magnitude displayed is 2.5.

Coastal Water Temperatures

Place Temperature

Stations

Nearby Weather Stations

Station Location Temp. Windchill Dew Point Humidity Wind Precip. Elev Updated Type